Amy B — WDI7307 — position and weather

sailwx.info

Track history (hours):
 
Tides and Currents Weather Stations Pressure Air Temp Water Temp Dewpoint Dewpoint Depression Visibility Wind Speed Wind Dir Waves Ship Positions

Amy B

Owner: WCP, Inc, Wilsonville, OR. More information available from US FCC via Universal Licensing System and Coast Guard Vessel Documentation Center.

Last reported at 2017-Dec-10 03:04 UTC. Time now 2017-Dec-13 20:51 UTC.
Position N 45°48' W 122°51'.

Length 21 m; draft 2.5 m.

Type: Towing. MMSI: 367727410.

Date/timePositionNaut miles runAvg speedWind from/ knotsBaromVisibWave heightAir tempDewpointWater temp
2017-Dec-10 03:04N 45°48' W 122°51'0 0.1
2017-Dec-10 03:00N 45°48' W 122°51'2 4.3
2017-Dec-10 02:30N 45°49' W 122°49'2 4.1
2017-Dec-10 02:01N 45°51' W 122°47'4 9.0
2017-Dec-10 01:31N 45°47' W 122°46'4 9.0
2017-Dec-10 01:01N 45°42' W 122°46'4 7.6
2017-Dec-10 00:30N 45°39' W 122°44'0 0.0
2017-Dec-10 00:00N 45°39' W 122°44'0 0.0
2017-Dec-09 23:30N 45°39' W 122°44'0 0.0
2017-Dec-09 23:00N 45°39' W 122°44'0 0.0
2017-Dec-09 22:30N 45°39' W 122°44'0 0.0
2017-Dec-09 22:00N 45°39' W 122°44'0 0.0
2017-Dec-09 21:30N 45°39' W 122°44'0 0.0
2017-Dec-09 21:00N 45°39' W 122°44'0 0.0
2017-Dec-09 20:30N 45°39' W 122°44'0 0.0
2017-Dec-09 20:00N 45°39' W 122°44'2 4.4
2017-Dec-09 19:31N 45°40' W 122°46'3 5.1
2017-Dec-09 19:00N 45°43' W 122°46'3 5.2
2017-Dec-09 18:30N 45°45' W 122°46'3 5.3
2017-Dec-09 18:00N 45°48' W 122°47'3 5.3
2017-Dec-09 17:29N 45°50' W 122°47'1 1.2
2017-Dec-09 17:00N 45°51' W 122°48'2 4.7
2017-Dec-09 16:30N 45°48' W 122°49'1 1.8
2017-Dec-09 16:00N 45°48' W 122°50'0 0.5
2017-Dec-09 15:29N 45°48' W 122°51'0 0.0
2017-Dec-09 14:14N 45°48' W 122°51'0 0.0
2017-Dec-09 13:47N 45°48' W 122°51'0 0.0
2017-Dec-09 13:26N 45°48' W 122°51'0 0.0
2017-Dec-09 12:47N 45°48' W 122°51'0 0.0
2017-Dec-09 12:26N 45°48' W 122°51'0 0.1
2017-Dec-09 11:59N 45°48' W 122°51'1 2.1
2017-Dec-09 11:30N 45°48' W 122°50'3 5.5
2017-Dec-09 11:01N 45°51' W 122°48'2 3.6
2017-Dec-09 10:30N 45°49' W 122°48'5 9.2
2017-Dec-09 10:00N 45°45' W 122°46'5 9.1
2017-Dec-09 09:30N 45°40' W 122°46'4 7.4
2017-Dec-09 09:01N 45°36' W 122°47'3 6.5
2017-Dec-09 08:30N 45°34' W 122°44'0 0.1
2017-Dec-09 08:00N 45°34' W 122°44'0 0.0
2017-Dec-09 07:30N 45°34' W 122°44'0 0.0
2017-Dec-09 07:00N 45°34' W 122°44'0 0.0
2017-Dec-09 06:30N 45°34' W 122°44'0 0.0
2017-Dec-09 05:58N 45°34' W 122°44'0 0.0
2017-Dec-09 05:28N 45°34' W 122°44'0 0.0
2017-Dec-09 04:58N 45°34' W 122°44'0 0.0
2017-Dec-09 04:28N 45°34' W 122°44'0 0.0
2017-Dec-09 03:58N 45°34' W 122°44'0 0.0
2017-Dec-09 03:28N 45°34' W 122°44'0 0.3
2017-Dec-09 02:59N 45°34' W 122°44'2 4.8
2017-Dec-09 02:31N 45°36' W 122°46'3 5.1
2017-Dec-09 02:00N 45°37' W 122°49'2 4.8
2017-Dec-09 01:31N 45°39' W 122°51'2 4.6
2017-Dec-09 01:01N 45°42' W 122°52'2 4.5
2017-Dec-09 00:31N 45°44' W 122°51'2 3.8
2017-Dec-09 00:00N 45°45' W 122°49'2 3.6
2017-Dec-08 23:31N 45°47' W 122°49'2 3.1
2017-Dec-08 23:01N 45°48' W 122°49'1 2.1
2017-Dec-08 22:30N 45°48' W 122°50'0 0.0
2017-Dec-08 21:59N 45°48' W 122°50'0 0.3
2017-Dec-08 21:28N 45°48' W 122°51'0 0.0
2017-Dec-08 20:59N 45°48' W 122°51'0 0.0
2017-Dec-08 20:21N 45°48' W 122°51'0 0.0
2017-Dec-08 20:00N 45°48' W 122°51'0 0.0
2017-Dec-08 19:20N 45°48' W 122°51'0 0.0
2017-Dec-08 19:00N 45°48' W 122°51'0 0.0
2017-Dec-08 18:23N 45°48' W 122°51'0 0.0
2017-Dec-08 17:57N 45°48' W 122°51'0 0.0
2017-Dec-08 17:30N 45°48' W 122°51'0 0.0
2017-Dec-08 16:53N 45°48' W 122°51'0 0.0
2017-Dec-08 16:29N 45°48' W 122°51'0 0.0
2017-Dec-08 15:57N 45°48' W 122°51'0 0.0
2017-Dec-08 15:30N 45°48' W 122°51'0 0.0
2017-Dec-08 15:00N 45°48' W 122°51'0 0.0
2017-Dec-08 14:30N 45°48' W 122°51'0 0.0
2017-Dec-08 14:00N 45°48' W 122°51'0 0.1
2017-Dec-08 13:30N 45°48' W 122°51'2 3.6
2017-Dec-08 13:00N 45°49' W 122°49'3 5.5
2017-Dec-08 12:30N 45°51' W 122°47'5 9.0
2017-Dec-08 12:00N 45°47' W 122°47'4 9.0
2017-Dec-08 11:31N 45°43' W 122°46'4 8.4
2017-Dec-08 11:00N 45°38' W 122°47'4 7.3
2017-Dec-08 10:30N 45°35' W 122°45'2 2.9
2017-Dec-08 09:59N 45°34' W 122°44'0 0.0
2017-Dec-08 09:29N 45°34' W 122°44'0 0.0
2017-Dec-08 08:59N 45°34' W 122°44'0 0.0
2017-Dec-08 08:29N 45°34' W 122°44'0 0.0
2017-Dec-08 07:59N 45°34' W 122°44'0 0.0
2017-Dec-08 07:29N 45°34' W 122°44'0 0.0
2017-Dec-08 06:59N 45°34' W 122°44'0 0.0
2017-Dec-08 06:29N 45°34' W 122°44'0 0.0
2017-Dec-08 05:59N 45°34' W 122°44'0 0.0
2017-Dec-08 05:29N 45°34' W 122°44'0 0.4
2017-Dec-08 05:00N 45°34' W 122°44'2 4.7
2017-Dec-08 04:30N 45°36' W 122°47'3 5.1
2017-Dec-08 04:00N 45°38' W 122°47'2 4.6
2017-Dec-08 03:30N 45°40' W 122°46'3 5.5
2017-Dec-08 03:00N 45°43' W 122°46'2 4.9
2017-Dec-08 02:30N 45°46' W 122°46'3 5.3
2017-Dec-08 02:00N 45°48' W 122°47'3 5.0
2017-Dec-08 01:30N 45°50' W 122°47'1 1.1
2017-Dec-08 01:00N 45°51' W 122°48'3 5.0
2017-Dec-08 00:30N 45°48' W 122°50'1 2.1
2017-Dec-08 00:00N 45°48' W 122°51'0 0.0
2017-Dec-07 23:31N 45°48' W 122°51'0 0.1
2017-Dec-07 22:59N 45°48' W 122°51'0 0.0
2017-Dec-07 22:28N 45°48' W 122°51'0 0.0
2017-Dec-07 21:55N 45°48' W 122°51'0 0.0
2017-Dec-07 21:28N 45°48' W 122°51'0 0.0
2017-Dec-07 20:49N 45°48' W 122°51'0 0.0
2017-Dec-07 20:28N 45°48' W 122°51'0 0.0
2017-Dec-07 19:58N 45°48' W 122°51'0 0.0
2017-Dec-07 19:28N 45°48' W 122°51'0 0.0
2017-Dec-07 18:52N 45°48' W 122°51'0 0.0
2017-Dec-07 18:28N 45°48' W 122°51'0 0.0
2017-Dec-07 17:58N 45°48' W 122°51'0 0.1
2017-Dec-07 17:13N 45°48' W 122°51'1 3.7
2017-Dec-07 17:00N 45°48' W 122°50'3 5.5
2017-Dec-07 16:30N 45°51' W 122°48'1 2.5
2017-Dec-07 16:01N 45°49' W 122°48'4 7.9
2017-Dec-07 15:30N 45°46' W 122°46'4 8.0
2017-Dec-07 15:00N 45°42' W 122°46'4 7.2
2017-Dec-07 14:30N 45°38' W 122°47'4 7.3
2017-Dec-07 14:00N 45°35' W 122°45'1 2.3
2017-Dec-07 13:30N 45°34' W 122°44'0 0.0
2017-Dec-07 13:00N 45°34' W 122°44'0 0.0
2017-Dec-07 12:30N 45°34' W 122°44'0 0.0
2017-Dec-07 12:00N 45°34' W 122°44'0 0.0
2017-Dec-07 11:30N 45°34' W 122°44'0 0.0
2017-Dec-07 11:00N 45°34' W 122°44'0 0.0
2017-Dec-07 10:30N 45°34' W 122°44'0 0.0
2017-Dec-07 10:00N 45°34' W 122°44'0 0.0
2017-Dec-07 09:30N 45°34' W 122°44'0 0.0
2017-Dec-07 08:54N 45°34' W 122°44'1 2.2
2017-Dec-07 08:31N 45°34' W 122°45'2 4.8
2017-Dec-07 08:00N 45°36' W 122°47'2 4.7
2017-Dec-07 07:30N 45°38' W 122°49'2 4.8
2017-Dec-07 07:00N 45°40' W 122°51'2 4.5
2017-Dec-07 06:30N 45°42' W 122°52'2 4.3
2017-Dec-07 06:00N 45°44' W 122°51'2 3.5
2017-Dec-07 05:30N 45°45' W 122°49'2 3.9
2017-Dec-07 05:01N 45°47' W 122°48'1 2.4
2017-Dec-07 04:30N 45°48' W 122°50'1 1.5
2017-Dec-07 04:00N 45°48' W 122°51'0 0.1
2017-Dec-07 03:30N 45°48' W 122°51'0 0.0
2017-Dec-07 02:37N 45°48' W 122°51'0 0.0
2017-Dec-07 02:28N 45°48' W 122°51'0 0.0
2017-Dec-07 01:58N 45°48' W 122°51'0 0.0
2017-Dec-07 01:25N 45°48' W 122°51'0 0.0
2017-Dec-07 00:52N 45°48' W 122°51'0 0.1
2017-Dec-07 00:28N 45°48' W 122°51'1 2.5
2017-Dec-07 00:00N 45°48' W 122°49'0 0.2
2017-Dec-06 23:28N 45°48' W 122°49'2 4.3
2017-Dec-06 23:00N 45°50' W 122°48'1 1.6
2017-Dec-06 22:31N 45°50' W 122°48'4 8.5
2017-Dec-06 21:59N 45°46' W 122°46'4 8.4
2017-Dec-06 21:31N 45°42' W 122°46'4 8.1
2017-Dec-06 21:00N 45°38' W 122°43'  
2017-Dec-03 09:41N 45°48' W 122°51'0 0.0
2017-Dec-03 09:29N 45°48' W 122°51'0 0.1
2017-Dec-03 09:00N 45°48' W 122°51'2 4.2
2017-Dec-03 08:30N 45°49' W 122°49'2 3.8
2017-Dec-03 08:00N 45°51' W 122°47'4 8.8
2017-Dec-03 07:30N 45°46' W 122°46'5 8.9
2017-Dec-03 06:59N 45°42' W 122°46'4 7.8
2017-Dec-03 06:30N 45°39' W 122°44'4 8.8
2017-Dec-03 06:00N 45°37' W 122°38'4 8.8
2017-Dec-03 05:30N 45°36' W 122°32'3 6.0
2017-Dec-03 04:59N 45°34' W 122°28'1 2.2
2017-Dec-03 04:30N 45°34' W 122°27'0 0.0
2017-Dec-03 03:42N 45°34' W 122°27'0 0.0
2017-Dec-03 03:21N 45°34' W 122°27'0 0.0
2017-Dec-03 02:21N 45°34' W 122°27'0 0.0
2017-Dec-03 02:00N 45°34' W 122°27'0 0.3
2017-Dec-03 01:31N 45°34' W 122°27'2 4.1
2017-Dec-03 01:00N 45°35' W 122°29'3 4.9
2017-Dec-03 00:29N 45°36' W 122°33'2 5.2
2017-Dec-03 00:00N 45°36' W 122°36'3 5.4
2017-Dec-02 23:30N 45°37' W 122°40'2 3.7
2017-Dec-02 22:59N 45°38' W 122°42'2 4.6
2017-Dec-02 22:31N 45°39' W 122°45'3 5.3
2017-Dec-02 22:00N 45°41' W 122°46'3 5.3
2017-Dec-02 21:30N 45°44' W 122°46'3 5.3
2017-Dec-02 21:01N 45°47' W 122°46'2 5.0
2017-Dec-02 20:30N 45°49' W 122°48'2 4.5
2017-Dec-02 20:01N 45°51' W 122°47'2 4.2
2017-Dec-02 19:26N 45°49' W 122°49'2 3.5
2017-Dec-02 19:00N 45°48' W 122°50'0 0.7
2017-Dec-02 18:28N 45°48' W 122°51'0 0.0
2017-Dec-02 17:52N 45°48' W 122°51'0 0.0
2017-Dec-02 17:28N 45°48' W 122°51'0 0.0
2017-Dec-02 16:58N 45°48' W 122°51'0 0.2
2017-Dec-02 16:28N 45°48' W 122°50'0 0.2
2017-Dec-02 15:58N 45°48' W 122°51'0 0.1
2017-Dec-02 15:25N 45°48' W 122°51'1 2.0
2017-Dec-02 15:00N 45°48' W 122°50'3 5.3
2017-Dec-02 14:31N 45°50' W 122°48'1 2.4
2017-Dec-02 14:00N 45°49' W 122°48'4 8.6
2017-Dec-02 13:31N 45°45' W 122°46'4 8.4
2017-Dec-02 13:01N 45°41' W 122°46'3 7.0
2017-Dec-02 12:31N 45°38' W 122°47'4 7.3
2017-Dec-02 12:01N 45°35' W 122°45'1 1.7
2017-Dec-02 11:30N 45°34' W 122°44'0 0.0
2017-Dec-02 11:00N 45°34' W 122°44'0 0.0
2017-Dec-02 10:30N 45°34' W 122°44'0 0.0
2017-Dec-02 10:00N 45°34' W 122°44'0 0.0
2017-Dec-02 09:30N 45°34' W 122°44'0 0.0
2017-Dec-02 09:00N 45°34' W 122°44'0 0.0
2017-Dec-02 08:30N 45°34' W 122°44'0 0.0
2017-Dec-02 08:00N 45°34' W 122°44'0 0.0
2017-Dec-02 07:30N 45°34' W 122°44'0 0.0
2017-Dec-02 07:00N 45°34' W 122°44'1 3.0
2017-Dec-02 06:31N 45°35' W 122°45'2 4.5
2017-Dec-02 06:00N 45°37' W 122°47'2 4.2
2017-Dec-02 05:30N 45°38' W 122°49'2 4.3
2017-Dec-02 05:00N 45°40' W 122°51'2 4.0
2017-Dec-02 04:30N 45°42' W 122°52'2 4.1
2017-Dec-02 04:00N 45°44' W 122°51'2 3.5
2017-Dec-02 03:31N 45°45' W 122°49'2 3.5
2017-Dec-02 03:00N 45°47' W 122°49'2 3.1
2017-Dec-02 02:31N 45°48' W 122°49'1 2.7
2017-Dec-02 01:59N 45°48' W 122°51'0 0.1
2017-Dec-02 01:27N 45°48' W 122°51'0 0.0
2017-Dec-02 01:00N 45°48' W 122°51'0 0.0
2017-Dec-02 00:30N 45°48' W 122°51'0 0.0
2017-Dec-01 23:36N 45°48' W 122°51'0 0.0
2017-Dec-01 23:30N 45°48' W 122°51'0 0.0
2017-Dec-01 22:57N 45°48' W 122°51'0 0.0
2017-Dec-01 22:30N 45°48' W 122°51'0 0.0
2017-Dec-01 22:00N 45°48' W 122°51'0 0.0
2017-Dec-01 21:24N 45°48' W 122°51'0 0.2
2017-Dec-01 20:58N 45°48' W 122°51'2 3.8
2017-Dec-01 20:31N 45°49' W 122°50'2 5.0
2017-Dec-01 20:00N 45°51' W 122°47'4 7.8
2017-Dec-01 19:30N 45°47' W 122°47'4 8.3
2017-Dec-01 19:00N 45°43' W 122°46'4 8.3
2017-Dec-01 18:30N 45°39' W 122°46'3 6.9
2017-Dec-01 18:00N 45°35' W 122°46'2 4.5
2017-Dec-01 17:29N 45°34' W 122°44'0 0.0
2017-Dec-01 16:59N 45°34' W 122°44'0 0.0
2017-Dec-01 16:29N 45°34' W 122°44'0 0.0
2017-Dec-01 15:59N 45°34' W 122°44'0 0.0
2017-Dec-01 15:26N 45°34' W 122°44'0 0.3
2017-Dec-01 14:58N 45°34' W 122°44'0 0.0
2017-Dec-01 14:28N 45°34' W 122°44'0 0.0
2017-Dec-01 13:58N 45°34' W 122°44'0 0.2
2017-Dec-01 13:26N 45°34' W 122°44'0 0.0
2017-Dec-01 12:59N 45°34' W 122°44'0 0.2
2017-Dec-01 12:30N 45°34' W 122°44'2 3.5
2017-Dec-01 12:00N 45°35' W 122°46'4 5.0
2017-Dec-01 11:17N 45°38' W 122°49'1 4.9
2017-Dec-01 11:00N 45°39' W 122°50'2 4.5
2017-Dec-01 10:31N 45°41' W 122°52'2 4.8
2017-Dec-01 10:01N 45°43' W 122°52'2 4.2
2017-Dec-01 09:30N 45°45' W 122°50'2 4.3
2017-Dec-01 09:00N 45°47' W 122°49'2 3.2
2017-Dec-01 08:30N 45°48' W 122°50'1 2.0
2017-Dec-01 07:57N 45°48' W 122°51'0 0.1
2017-Dec-01 07:29N 45°48' W 122°51'0 0.1
2017-Dec-01 06:59N 45°48' W 122°51'0 0.0
2017-Dec-01 06:29N 45°48' W 122°51'0 0.0
2017-Dec-01 05:56N 45°48' W 122°51'0 0.0
2017-Dec-01 05:29N 45°48' W 122°51'0 0.0
2017-Dec-01 04:59N 45°48' W 122°51'0 0.0
2017-Dec-01 04:29N 45°48' W 122°51'0 0.0
2017-Dec-01 04:00N 45°48' W 122°51'0 0.0
2017-Dec-01 03:26N 45°48' W 122°51'0 0.0
2017-Dec-01 02:56N 45°48' W 122°51'0 0.0
2017-Dec-01 02:29N 45°48' W 122°51'2 2.4
2017-Dec-01 01:42N 45°49' W 122°49'1 6.3
2017-Dec-01 01:30N 45°50' W 122°48'4 4.6
2017-Dec-01 00:43N 45°47' W 122°46'2 8.5
2017-Dec-01 00:30N 45°45' W 122°46'4 8.7
2017-Dec-01 00:00N 45°41' W 122°47'4 7.5
2017-Nov-30 23:30N 45°37' W 122°47'4 7.5
2017-Nov-30 23:00N 45°34' W 122°44'0 0.8
2017-Nov-30 22:28N 45°34' W 122°44'0 0.0
2017-Nov-30 21:58N 45°34' W 122°44'0 0.0
2017-Nov-30 21:28N 45°34' W 122°44'0 0.0
2017-Nov-30 20:58N 45°34' W 122°44'0 0.0
2017-Nov-30 20:28N 45°34' W 122°44'0 0.0
2017-Nov-30 19:58N 45°34' W 122°44'0 0.0
2017-Nov-30 19:25N 45°34' W 122°44'0 0.0
2017-Nov-30 18:55N 45°34' W 122°44'0 0.0
2017-Nov-30 18:28N 45°34' W 122°44'0 0.0
2017-Nov-30 17:58N 45°34' W 122°44'0 0.1
2017-Nov-30 17:20N 45°34' W 122°44'1 4.2
2017-Nov-30 17:00N 45°35' W 122°45'2 4.8
2017-Nov-30 16:30N 45°37' W 122°47'2 4.6
2017-Nov-30 16:00N 45°39' W 122°49'2 4.6
2017-Nov-30 15:30N 45°40' W 122°52'2 4.2
2017-Nov-30 15:01N 45°42' W 122°52'2 4.0
2017-Nov-30 14:30N 45°44' W 122°51'2 3.5
2017-Nov-30 14:00N 45°46' W 122°49'2 3.7
2017-Nov-30 13:30N 45°47' W 122°48'1 2.4
2017-Nov-30 13:00N 45°48' W 122°50'1 1.8
2017-Nov-30 12:30N 45°48' W 122°51'0 0.1
2017-Nov-30 12:00N 45°48' W 122°51'0 0.0
2017-Nov-30 07:16N 45°48' W 122°51'0 0.1
2017-Nov-30 06:49N 45°48' W 122°51'1 1.8
2017-Nov-30 06:31N 45°48' W 122°50'2 4.9
2017-Nov-30 06:00N 45°50' W 122°49'1 1.9
2017-Nov-30 05:30N 45°49' W 122°48'4 8.9
2017-Nov-30 05:00N 45°45' W 122°46'4 9.0
2017-Nov-30 04:30N 45°41' W 122°46'611.3
2017-Nov-30 03:59N 45°35' W 122°46'1 2.7
2017-Nov-30 03:28N 45°34' W 122°44'  
Track history (hours):
 
Tides and Currents Weather Stations Pressure Air Temp Water Temp Dewpoint Dewpoint Depression Visibility Wind Speed Wind Dir Waves Ship Positions

Amy B

Owner: WCP, Inc, Wilsonville, OR. More information available from US FCC via Universal Licensing System and Coast Guard Vessel Documentation Center.

Last reported at 2017-Dec-10 03:04 UTC. Time now 2017-Dec-13 20:51 UTC.
Position N 45°48' W 122°51'.

Length 21 m; draft 2.5 m.

Type: Towing. MMSI: 367727410.

Date/timePositionNaut miles runAvg speedWind from/ knotsBaromVisibWave heightAir tempDewpointWater temp
2017-Dec-10 03:04N 45°48' W 122°51'0 0.1
2017-Dec-10 03:00N 45°48' W 122°51'2 4.3
2017-Dec-10 02:30N 45°49' W 122°49'2 4.1
2017-Dec-10 02:01N 45°51' W 122°47'4 9.0
2017-Dec-10 01:31N 45°47' W 122°46'4 9.0
2017-Dec-10 01:01N 45°42' W 122°46'4 7.6
2017-Dec-10 00:30N 45°39' W 122°44'0 0.0
2017-Dec-10 00:00N 45°39' W 122°44'0 0.0
2017-Dec-09 23:30N 45°39' W 122°44'0 0.0
2017-Dec-09 23:00N 45°39' W 122°44'0 0.0
2017-Dec-09 22:30N 45°39' W 122°44'0 0.0
2017-Dec-09 22:00N 45°39' W 122°44'0 0.0
2017-Dec-09 21:30N 45°39' W 122°44'0 0.0
2017-Dec-09 21:00N 45°39' W 122°44'0 0.0
2017-Dec-09 20:30N 45°39' W 122°44'0 0.0
2017-Dec-09 20:00N 45°39' W 122°44'2 4.4
2017-Dec-09 19:31N 45°40' W 122°46'3 5.1
2017-Dec-09 19:00N 45°43' W 122°46'3 5.2
2017-Dec-09 18:30N 45°45' W 122°46'3 5.3
2017-Dec-09 18:00N 45°48' W 122°47'3 5.3
2017-Dec-09 17:29N 45°50' W 122°47'1 1.2
2017-Dec-09 17:00N 45°51' W 122°48'2 4.7
2017-Dec-09 16:30N 45°48' W 122°49'1 1.8
2017-Dec-09 16:00N 45°48' W 122°50'0 0.5
2017-Dec-09 15:29N 45°48' W 122°51'0 0.0
2017-Dec-09 14:14N 45°48' W 122°51'0 0.0
2017-Dec-09 13:47N 45°48' W 122°51'0 0.0
2017-Dec-09 13:26N 45°48' W 122°51'0 0.0
2017-Dec-09 12:47N 45°48' W 122°51'0 0.0
2017-Dec-09 12:26N 45°48' W 122°51'0 0.1
2017-Dec-09 11:59N 45°48' W 122°51'1 2.1
2017-Dec-09 11:30N 45°48' W 122°50'3 5.5
2017-Dec-09 11:01N 45°51' W 122°48'2 3.6
2017-Dec-09 10:30N 45°49' W 122°48'5 9.2
2017-Dec-09 10:00N 45°45' W 122°46'5 9.1
2017-Dec-09 09:30N 45°40' W 122°46'4 7.4
2017-Dec-09 09:01N 45°36' W 122°47'3 6.5
2017-Dec-09 08:30N 45°34' W 122°44'0 0.1
2017-Dec-09 08:00N 45°34' W 122°44'0 0.0
2017-Dec-09 07:30N 45°34' W 122°44'0 0.0
2017-Dec-09 07:00N 45°34' W 122°44'0 0.0
2017-Dec-09 06:30N 45°34' W 122°44'0 0.0
2017-Dec-09 05:58N 45°34' W 122°44'0 0.0
2017-Dec-09 05:28N 45°34' W 122°44'0 0.0
2017-Dec-09 04:58N 45°34' W 122°44'0 0.0
2017-Dec-09 04:28N 45°34' W 122°44'0 0.0
2017-Dec-09 03:58N 45°34' W 122°44'0 0.0
2017-Dec-09 03:28N 45°34' W 122°44'0 0.3
2017-Dec-09 02:59N 45°34' W 122°44'2 4.8
2017-Dec-09 02:31N 45°36' W 122°46'3 5.1
2017-Dec-09 02:00N 45°37' W 122°49'2 4.8
2017-Dec-09 01:31N 45°39' W 122°51'2 4.6
2017-Dec-09 01:01N 45°42' W 122°52'2 4.5
2017-Dec-09 00:31N 45°44' W 122°51'2 3.8
2017-Dec-09 00:00N 45°45' W 122°49'2 3.6
2017-Dec-08 23:31N 45°47' W 122°49'2 3.1
2017-Dec-08 23:01N 45°48' W 122°49'1 2.1
2017-Dec-08 22:30N 45°48' W 122°50'0 0.0
2017-Dec-08 21:59N 45°48' W 122°50'0 0.3
2017-Dec-08 21:28N 45°48' W 122°51'0 0.0
2017-Dec-08 20:59N 45°48' W 122°51'0 0.0
2017-Dec-08 20:21N 45°48' W 122°51'0 0.0
2017-Dec-08 20:00N 45°48' W 122°51'0 0.0
2017-Dec-08 19:20N 45°48' W 122°51'0 0.0
2017-Dec-08 19:00N 45°48' W 122°51'0 0.0
2017-Dec-08 18:23N 45°48' W 122°51'0 0.0
2017-Dec-08 17:57N 45°48' W 122°51'0 0.0
2017-Dec-08 17:30N 45°48' W 122°51'0 0.0
2017-Dec-08 16:53N 45°48' W 122°51'0 0.0
2017-Dec-08 16:29N 45°48' W 122°51'0 0.0
2017-Dec-08 15:57N 45°48' W 122°51'0 0.0
2017-Dec-08 15:30N 45°48' W 122°51'0 0.0
2017-Dec-08 15:00N 45°48' W 122°51'0 0.0
2017-Dec-08 14:30N 45°48' W 122°51'0 0.0
2017-Dec-08 14:00N 45°48' W 122°51'0 0.1
2017-Dec-08 13:30N 45°48' W 122°51'2 3.6
2017-Dec-08 13:00N 45°49' W 122°49'3 5.5
2017-Dec-08 12:30N 45°51' W 122°47'5 9.0
2017-Dec-08 12:00N 45°47' W 122°47'4 9.0
2017-Dec-08 11:31N 45°43' W 122°46'4 8.4
2017-Dec-08 11:00N 45°38' W 122°47'4 7.3
2017-Dec-08 10:30N 45°35' W 122°45'2 2.9
2017-Dec-08 09:59N 45°34' W 122°44'0 0.0
2017-Dec-08 09:29N 45°34' W 122°44'0 0.0
2017-Dec-08 08:59N 45°34' W 122°44'0 0.0
2017-Dec-08 08:29N 45°34' W 122°44'0 0.0
2017-Dec-08 07:59N 45°34' W 122°44'0 0.0
2017-Dec-08 07:29N 45°34' W 122°44'0 0.0
2017-Dec-08 06:59N 45°34' W 122°44'0 0.0
2017-Dec-08 06:29N 45°34' W 122°44'0 0.0
2017-Dec-08 05:59N 45°34' W 122°44'0 0.0
2017-Dec-08 05:29N 45°34' W 122°44'0 0.4
2017-Dec-08 05:00N 45°34' W 122°44'2 4.7
2017-Dec-08 04:30N 45°36' W 122°47'3 5.1
2017-Dec-08 04:00N 45°38' W 122°47'2 4.6
2017-Dec-08 03:30N 45°40' W 122°46'3 5.5
2017-Dec-08 03:00N 45°43' W 122°46'2 4.9
2017-Dec-08 02:30N 45°46' W 122°46'3 5.3
2017-Dec-08 02:00N 45°48' W 122°47'3 5.0
2017-Dec-08 01:30N 45°50' W 122°47'1 1.1
2017-Dec-08 01:00N 45°51' W 122°48'3 5.0
2017-Dec-08 00:30N 45°48' W 122°50'1 2.1
2017-Dec-08 00:00N 45°48' W 122°51'0 0.0
2017-Dec-07 23:31N 45°48' W 122°51'0 0.1
2017-Dec-07 22:59N 45°48' W 122°51'0 0.0
2017-Dec-07 22:28N 45°48' W 122°51'0 0.0
2017-Dec-07 21:55N 45°48' W 122°51'0 0.0
2017-Dec-07 21:28N 45°48' W 122°51'0 0.0
2017-Dec-07 20:49N 45°48' W 122°51'0 0.0
2017-Dec-07 20:28N 45°48' W 122°51'0 0.0
2017-Dec-07 19:58N 45°48' W 122°51'0 0.0
2017-Dec-07 19:28N 45°48' W 122°51'0 0.0
2017-Dec-07 18:52N 45°48' W 122°51'0 0.0
2017-Dec-07 18:28N 45°48' W 122°51'0 0.0
2017-Dec-07 17:58N 45°48' W 122°51'0 0.1
2017-Dec-07 17:13N 45°48' W 122°51'1 3.7
2017-Dec-07 17:00N 45°48' W 122°50'3 5.5
2017-Dec-07 16:30N 45°51' W 122°48'1 2.5
2017-Dec-07 16:01N 45°49' W 122°48'4 7.9
2017-Dec-07 15:30N 45°46' W 122°46'4 8.0
2017-Dec-07 15:00N 45°42' W 122°46'4 7.2
2017-Dec-07 14:30N 45°38' W 122°47'4 7.3
2017-Dec-07 14:00N 45°35' W 122°45'1 2.3
2017-Dec-07 13:30N 45°34' W 122°44'0 0.0
2017-Dec-07 13:00N 45°34' W 122°44'0 0.0
2017-Dec-07 12:30N 45°34' W 122°44'0 0.0
2017-Dec-07 12:00N 45°34' W 122°44'0 0.0
2017-Dec-07 11:30N 45°34' W 122°44'0 0.0
2017-Dec-07 11:00N 45°34' W 122°44'0 0.0
2017-Dec-07 10:30N 45°34' W 122°44'0 0.0
2017-Dec-07 10:00N 45°34' W 122°44'0 0.0
2017-Dec-07 09:30N 45°34' W 122°44'0 0.0
2017-Dec-07 08:54N 45°34' W 122°44'1 2.2
2017-Dec-07 08:31N 45°34' W 122°45'2 4.8
2017-Dec-07 08:00N 45°36' W 122°47'2 4.7
2017-Dec-07 07:30N 45°38' W 122°49'2 4.8
2017-Dec-07 07:00N 45°40' W 122°51'2 4.5
2017-Dec-07 06:30N 45°42' W 122°52'2 4.3
2017-Dec-07 06:00N 45°44' W 122°51'2 3.5
2017-Dec-07 05:30N 45°45' W 122°49'2 3.9
2017-Dec-07 05:01N 45°47' W 122°48'1 2.4
2017-Dec-07 04:30N 45°48' W 122°50'1 1.5
2017-Dec-07 04:00N 45°48' W 122°51'0 0.1
2017-Dec-07 03:30N 45°48' W 122°51'0 0.0
2017-Dec-07 02:37N 45°48' W 122°51'0 0.0
2017-Dec-07 02:28N 45°48' W 122°51'0 0.0
2017-Dec-07 01:58N 45°48' W 122°51'0 0.0
2017-Dec-07 01:25N 45°48' W 122°51'0 0.0
2017-Dec-07 00:52N 45°48' W 122°51'0 0.1
2017-Dec-07 00:28N 45°48' W 122°51'1 2.5
2017-Dec-07 00:00N 45°48' W 122°49'0 0.2
2017-Dec-06 23:28N 45°48' W 122°49'2 4.3
2017-Dec-06 23:00N 45°50' W 122°48'1 1.6
2017-Dec-06 22:31N 45°50' W 122°48'4 8.5
2017-Dec-06 21:59N 45°46' W 122°46'4 8.4
2017-Dec-06 21:31N 45°42' W 122°46'4 8.1
2017-Dec-06 21:00N 45°38' W 122°43'  
2017-Dec-03 09:41N 45°48' W 122°51'0 0.0
2017-Dec-03 09:29N 45°48' W 122°51'0 0.1
2017-Dec-03 09:00N 45°48' W 122°51'2 4.2
2017-Dec-03 08:30N 45°49' W 122°49'2 3.8
2017-Dec-03 08:00N 45°51' W 122°47'4 8.8
2017-Dec-03 07:30N 45°46' W 122°46'5 8.9
2017-Dec-03 06:59N 45°42' W 122°46'4 7.8
2017-Dec-03 06:30N 45°39' W 122°44'4 8.8
2017-Dec-03 06:00N 45°37' W 122°38'4 8.8
2017-Dec-03 05:30N 45°36' W 122°32'3 6.0
2017-Dec-03 04:59N 45°34' W 122°28'1 2.2
2017-Dec-03 04:30N 45°34' W 122°27'0 0.0
2017-Dec-03 03:42N 45°34' W 122°27'0 0.0
2017-Dec-03 03:21N 45°34' W 122°27'0 0.0
2017-Dec-03 02:21N 45°34' W 122°27'0 0.0
2017-Dec-03 02:00N 45°34' W 122°27'0 0.3
2017-Dec-03 01:31N 45°34' W 122°27'2 4.1
2017-Dec-03 01:00N 45°35' W 122°29'3 4.9
2017-Dec-03 00:29N 45°36' W 122°33'2 5.2
2017-Dec-03 00:00N 45°36' W 122°36'3 5.4
2017-Dec-02 23:30N 45°37' W 122°40'2 3.7
2017-Dec-02 22:59N 45°38' W 122°42'2 4.6
2017-Dec-02 22:31N 45°39' W 122°45'3 5.3
2017-Dec-02 22:00N 45°41' W 122°46'3 5.3
2017-Dec-02 21:30N 45°44' W 122°46'3 5.3
2017-Dec-02 21:01N 45°47' W 122°46'2 5.0
2017-Dec-02 20:30N 45°49' W 122°48'2 4.5
2017-Dec-02 20:01N 45°51' W 122°47'2 4.2
2017-Dec-02 19:26N 45°49' W 122°49'2 3.5
2017-Dec-02 19:00N 45°48' W 122°50'0 0.7
2017-Dec-02 18:28N 45°48' W 122°51'0 0.0
2017-Dec-02 17:52N 45°48' W 122°51'0 0.0
2017-Dec-02 17:28N 45°48' W 122°51'0 0.0
2017-Dec-02 16:58N 45°48' W 122°51'0 0.2
2017-Dec-02 16:28N 45°48' W 122°50'0 0.2
2017-Dec-02 15:58N 45°48' W 122°51'0 0.1
2017-Dec-02 15:25N 45°48' W 122°51'1 2.0
2017-Dec-02 15:00N 45°48' W 122°50'3 5.3
2017-Dec-02 14:31N 45°50' W 122°48'1 2.4
2017-Dec-02 14:00N 45°49' W 122°48'4 8.6
2017-Dec-02 13:31N 45°45' W 122°46'4 8.4
2017-Dec-02 13:01N 45°41' W 122°46'3 7.0
2017-Dec-02 12:31N 45°38' W 122°47'4 7.3
2017-Dec-02 12:01N 45°35' W 122°45'1 1.7
2017-Dec-02 11:30N 45°34' W 122°44'0 0.0
2017-Dec-02 11:00N 45°34' W 122°44'0 0.0
2017-Dec-02 10:30N 45°34' W 122°44'0 0.0
2017-Dec-02 10:00N 45°34' W 122°44'0 0.0
2017-Dec-02 09:30N 45°34' W 122°44'0 0.0
2017-Dec-02 09:00N 45°34' W 122°44'0 0.0
2017-Dec-02 08:30N 45°34' W 122°44'0 0.0
2017-Dec-02 08:00N 45°34' W 122°44'0 0.0
2017-Dec-02 07:30N 45°34' W 122°44'0 0.0
2017-Dec-02 07:00N 45°34' W 122°44'1 3.0
2017-Dec-02 06:31N 45°35' W 122°45'2 4.5
2017-Dec-02 06:00N 45°37' W 122°47'2 4.2
2017-Dec-02 05:30N 45°38' W 122°49'2 4.3
2017-Dec-02 05:00N 45°40' W 122°51'2 4.0
2017-Dec-02 04:30N 45°42' W 122°52'2 4.1
2017-Dec-02 04:00N 45°44' W 122°51'2 3.5
2017-Dec-02 03:31N 45°45' W 122°49'2 3.5
2017-Dec-02 03:00N 45°47' W 122°49'2 3.1
2017-Dec-02 02:31N 45°48' W 122°49'1 2.7
2017-Dec-02 01:59N 45°48' W 122°51'0 0.1
2017-Dec-02 01:27N 45°48' W 122°51'0 0.0
2017-Dec-02 01:00N 45°48' W 122°51'0 0.0
2017-Dec-02 00:30N 45°48' W 122°51'0 0.0
2017-Dec-01 23:36N 45°48' W 122°51'0 0.0
2017-Dec-01 23:30N 45°48' W 122°51'0 0.0
2017-Dec-01 22:57N 45°48' W 122°51'0 0.0
2017-Dec-01 22:30N 45°48' W 122°51'0 0.0
2017-Dec-01 22:00N 45°48' W 122°51'0 0.0
2017-Dec-01 21:24N 45°48' W 122°51'0 0.2
2017-Dec-01 20:58N 45°48' W 122°51'2 3.8
2017-Dec-01 20:31N 45°49' W 122°50'2 5.0
2017-Dec-01 20:00N 45°51' W 122°47'4 7.8
2017-Dec-01 19:30N 45°47' W 122°47'4 8.3
2017-Dec-01 19:00N 45°43' W 122°46'4 8.3
2017-Dec-01 18:30N 45°39' W 122°46'3 6.9
2017-Dec-01 18:00N 45°35' W 122°46'2 4.5
2017-Dec-01 17:29N 45°34' W 122°44'0 0.0
2017-Dec-01 16:59N 45°34' W 122°44'0 0.0
2017-Dec-01 16:29N 45°34' W 122°44'0 0.0
2017-Dec-01 15:59N 45°34' W 122°44'0 0.0
2017-Dec-01 15:26N 45°34' W 122°44'0 0.3
2017-Dec-01 14:58N 45°34' W 122°44'0 0.0
2017-Dec-01 14:28N 45°34' W 122°44'0 0.0
2017-Dec-01 13:58N 45°34' W 122°44'0 0.2
2017-Dec-01 13:26N 45°34' W 122°44'0 0.0
2017-Dec-01 12:59N 45°34' W 122°44'0 0.2
2017-Dec-01 12:30N 45°34' W 122°44'2 3.5
2017-Dec-01 12:00N 45°35' W 122°46'4 5.0
2017-Dec-01 11:17N 45°38' W 122°49'1 4.9
2017-Dec-01 11:00N 45°39' W 122°50'2 4.5
2017-Dec-01 10:31N 45°41' W 122°52'2 4.8
2017-Dec-01 10:01N 45°43' W 122°52'2 4.2
2017-Dec-01 09:30N 45°45' W 122°50'2 4.3
2017-Dec-01 09:00N 45°47' W 122°49'2 3.2
2017-Dec-01 08:30N 45°48' W 122°50'1 2.0
2017-Dec-01 07:57N 45°48' W 122°51'0 0.1
2017-Dec-01 07:29N 45°48' W 122°51'0 0.1
2017-Dec-01 06:59N 45°48' W 122°51'0 0.0
2017-Dec-01 06:29N 45°48' W 122°51'0 0.0
2017-Dec-01 05:56N 45°48' W 122°51'0 0.0
2017-Dec-01 05:29N 45°48' W 122°51'0 0.0
2017-Dec-01 04:59N 45°48' W 122°51'0 0.0
2017-Dec-01 04:29N 45°48' W 122°51'0 0.0
2017-Dec-01 04:00N 45°48' W 122°51'0 0.0
2017-Dec-01 03:26N 45°48' W 122°51'0 0.0
2017-Dec-01 02:56N 45°48' W 122°51'0 0.0
2017-Dec-01 02:29N 45°48' W 122°51'2 2.4
2017-Dec-01 01:42N 45°49' W 122°49'1 6.3
2017-Dec-01 01:30N 45°50' W 122°48'4 4.6
2017-Dec-01 00:43N 45°47' W 122°46'2 8.5
2017-Dec-01 00:30N 45°45' W 122°46'4 8.7
2017-Dec-01 00:00N 45°41' W 122°47'4 7.5
2017-Nov-30 23:30N 45°37' W 122°47'4 7.5
2017-Nov-30 23:00N 45°34' W 122°44'0 0.8
2017-Nov-30 22:28N 45°34' W 122°44'0 0.0
2017-Nov-30 21:58N 45°34' W 122°44'0 0.0
2017-Nov-30 21:28N 45°34' W 122°44'0 0.0
2017-Nov-30 20:58N 45°34' W 122°44'0 0.0
2017-Nov-30 20:28N 45°34' W 122°44'0 0.0
2017-Nov-30 19:58N 45°34' W 122°44'0 0.0
2017-Nov-30 19:25N 45°34' W 122°44'0 0.0
2017-Nov-30 18:55N 45°34' W 122°44'0 0.0
2017-Nov-30 18:28N 45°34' W 122°44'0 0.0
2017-Nov-30 17:58N 45°34' W 122°44'0 0.1
2017-Nov-30 17:20N 45°34' W 122°44'1 4.2
2017-Nov-30 17:00N 45°35' W 122°45'2 4.8
2017-Nov-30 16:30N 45°37' W 122°47'2 4.6
2017-Nov-30 16:00N 45°39' W 122°49'2 4.6
2017-Nov-30 15:30N 45°40' W 122°52'2 4.2
2017-Nov-30 15:01N 45°42' W 122°52'2 4.0
2017-Nov-30 14:30N 45°44' W 122°51'2 3.5
2017-Nov-30 14:00N 45°46' W 122°49'2 3.7
2017-Nov-30 13:30N 45°47' W 122°48'1 2.4
2017-Nov-30 13:00N 45°48' W 122°50'1 1.8
2017-Nov-30 12:30N 45°48' W 122°51'0 0.1
2017-Nov-30 12:00N 45°48' W 122°51'0 0.0
2017-Nov-30 07:16N 45°48' W 122°51'0 0.1
2017-Nov-30 06:49N 45°48' W 122°51'1 1.8
2017-Nov-30 06:31N 45°48' W 122°50'2 4.9
2017-Nov-30 06:00N 45°50' W 122°49'1 1.9
2017-Nov-30 05:30N 45°49' W 122°48'4 8.9
2017-Nov-30 05:00N 45°45' W 122°46'4 9.0
2017-Nov-30 04:30N 45°41' W 122°46'611.3
2017-Nov-30 03:59N 45°35' W 122°46'1 2.7
2017-Nov-30 03:28N 45°34' W 122°44'  

Dump ship's entire track history